sensor_id;sensor_type;location;lat;lon;timestamp;P1;durP1;ratioP1;P2;durP2;ratioP2
54539;SDS011;40438;52.992;18.604;2023-04-15T00:00:58;11.50;;;6.57;;
54539;SDS011;40438;52.992;18.604;2023-04-15T00:03:24;11.68;;;6.78;;
54539;SDS011;40438;52.992;18.604;2023-04-15T00:05:49;12.73;;;6.57;;
54539;SDS011;40438;52.992;18.604;2023-04-15T00:08:15;11.45;;;6.65;;
54539;SDS011;40438;52.992;18.604;2023-04-15T00:10:41;12.95;;;7.15;;
54539;SDS011;40438;52.992;18.604;2023-04-15T00:13:07;13.55;;;7.00;;
54539;SDS011;40438;52.992;18.604;2023-04-15T00:15:34;12.60;;;6.85;;
54539;SDS011;40438;52.992;18.604;2023-04-15T00:18:00;14.95;;;6.70;;
54539;SDS011;40438;52.992;18.604;2023-04-15T00:20:25;11.90;;;7.10;;
54539;SDS011;40438;52.992;18.604;2023-04-15T00:22:51;12.45;;;6.97;;
54539;SDS011;40438;52.992;18.604;2023-04-15T00:25:17;13.73;;;7.60;;
54539;SDS011;40438;52.992;18.604;2023-04-15T00:27:43;16.45;;;7.68;;
54539;SDS011;40438;52.992;18.604;2023-04-15T00:30:09;12.57;;;7.88;;
54539;SDS011;40438;52.992;18.604;2023-04-15T00:32:37;12.73;;;7.82;;
54539;SDS011;40438;52.992;18.604;2023-04-15T00:35:03;14.68;;;7.43;;
54539;SDS011;40438;52.992;18.604;2023-04-15T00:37:29;14.45;;;7.55;;
54539;SDS011;40438;52.992;18.604;2023-04-15T00:39:55;12.05;;;7.45;;
54539;SDS011;40438;52.992;18.604;2023-04-15T00:42:22;14.85;;;7.30;;
54539;SDS011;40438;52.992;18.604;2023-04-15T00:44:48;11.88;;;7.55;;
54539;SDS011;40438;52.992;18.604;2023-04-15T00:47:14;12.90;;;7.28;;
54539;SDS011;40438;52.992;18.604;2023-04-15T00:49:42;14.85;;;8.45;;
54539;SDS011;40438;52.992;18.604;2023-04-15T00:52:08;14.93;;;8.50;;
54539;SDS011;40438;52.992;18.604;2023-04-15T00:54:34;13.95;;;8.10;;
54539;SDS011;40438;52.992;18.604;2023-04-15T00:57:00;13.77;;;7.93;;
54539;SDS011;40438;52.992;18.604;2023-04-15T00:59:26;14.48;;;7.50;;
54539;SDS011;40438;52.992;18.604;2023-04-15T01:01:53;13.88;;;7.32;;
54539;SDS011;40438;52.992;18.604;2023-04-15T01:04:19;14.60;;;7.63;;
54539;SDS011;40438;52.992;18.604;2023-04-15T01:06:46;12.38;;;7.15;;
54539;SDS011;40438;52.992;18.604;2023-04-15T01:09:12;15.73;;;7.70;;
54539;SDS011;40438;52.992;18.604;2023-04-15T01:11:37;12.07;;;8.10;;
54539;SDS011;40438;52.992;18.604;2023-04-15T01:14:03;19.50;;;7.47;;
54539;SDS011;40438;52.992;18.604;2023-04-15T01:16:30;12.93;;;7.53;;
54539;SDS011;40438;52.992;18.604;2023-04-15T01:18:55;13.85;;;7.15;;
54539;SDS011;40438;52.992;18.604;2023-04-15T01:21:22;13.18;;;7.20;;
54539;SDS011;40438;52.992;18.604;2023-04-15T01:23:49;16.20;;;7.60;;
54539;SDS011;40438;52.992;18.604;2023-04-15T01:26:17;12.52;;;7.32;;
54539;SDS011;40438;52.992;18.604;2023-04-15T01:28:44;16.60;;;7.65;;
54539;SDS011;40438;52.992;18.604;2023-04-15T01:31:10;15.02;;;7.68;;
54539;SDS011;40438;52.992;18.604;2023-04-15T01:33:38;12.43;;;7.63;;
54539;SDS011;40438;52.992;18.604;2023-04-15T01:36:05;12.70;;;7.13;;
54539;SDS011;40438;52.992;18.604;2023-04-15T01:38:32;14.52;;;6.78;;
54539;SDS011;40438;52.992;18.604;2023-04-15T01:40:59;13.95;;;7.07;;
54539;SDS011;40438;52.992;18.604;2023-04-15T01:43:26;14.27;;;7.10;;
54539;SDS011;40438;52.992;18.604;2023-04-15T01:45:52;12.07;;;6.43;;
54539;SDS011;40438;52.992;18.604;2023-04-15T01:48:17;11.60;;;6.82;;
54539;SDS011;40438;52.992;18.604;2023-04-15T01:50:43;11.85;;;7.18;;
54539;SDS011;40438;52.992;18.604;2023-04-15T01:53:09;12.43;;;6.97;;
54539;SDS011;40438;52.992;18.604;2023-04-15T01:55:35;11.98;;;6.65;;
54539;SDS011;40438;52.992;18.604;2023-04-15T01:58:01;12.57;;;6.35;;
54539;SDS011;40438;52.992;18.604;2023-04-15T02:00:28;12.43;;;6.70;;
54539;SDS011;40438;52.992;18.604;2023-04-15T02:02:54;10.18;;;6.13;;
54539;SDS011;40438;52.992;18.604;2023-04-15T02:05:23;13.52;;;6.70;;
54539;SDS011;40438;52.992;18.604;2023-04-15T02:07:49;12.38;;;7.00;;
54539;SDS011;40438;52.992;18.604;2023-04-15T02:10:15;14.60;;;6.65;;
54539;SDS011;40438;52.992;18.604;2023-04-15T02:12:41;12.02;;;6.65;;
54539;SDS011;40438;52.992;18.604;2023-04-15T02:15:07;15.48;;;6.05;;
54539;SDS011;40438;52.992;18.604;2023-04-15T02:17:35;12.25;;;6.63;;
54539;SDS011;40438;52.992;18.604;2023-04-15T02:20:01;12.93;;;6.78;;
54539;SDS011;40438;52.992;18.604;2023-04-15T02:22:30;11.60;;;6.43;;
54539;SDS011;40438;52.992;18.604;2023-04-15T02:24:56;12.68;;;6.90;;
54539;SDS011;40438;52.992;18.604;2023-04-15T02:27:22;11.63;;;7.00;;
54539;SDS011;40438;52.992;18.604;2023-04-15T02:29:48;12.15;;;6.63;;
54539;SDS011;40438;52.992;18.604;2023-04-15T02:32:14;10.38;;;6.28;;
54539;SDS011;40438;52.992;18.604;2023-04-15T02:34:41;13.30;;;6.90;;
54539;SDS011;40438;52.992;18.604;2023-04-15T02:37:08;13.20;;;7.05;;
54539;SDS011;40438;52.992;18.604;2023-04-15T02:39:35;10.07;;;5.82;;
54539;SDS011;40438;52.992;18.604;2023-04-15T02:42:01;13.38;;;6.80;;
54539;SDS011;40438;52.992;18.604;2023-04-15T02:44:27;12.15;;;7.00;;
54539;SDS011;40438;52.992;18.604;2023-04-15T02:46:57;11.30;;;6.43;;
54539;SDS011;40438;52.992;18.604;2023-04-15T02:49:23;12.18;;;6.57;;
54539;SDS011;40438;52.992;18.604;2023-04-15T02:51:50;12.15;;;6.47;;
54539;SDS011;40438;52.992;18.604;2023-04-15T02:54:18;13.00;;;6.75;;
54539;SDS011;40438;52.992;18.604;2023-04-15T02:56:44;14.63;;;7.47;;
54539;SDS011;40438;52.992;18.604;2023-04-15T02:59:10;11.77;;;6.93;;
54539;SDS011;40438;52.992;18.604;2023-04-15T03:01:36;11.98;;;6.90;;
54539;SDS011;40438;52.992;18.604;2023-04-15T03:04:02;12.25;;;7.43;;
54539;SDS011;40438;52.992;18.604;2023-04-15T03:06:28;13.70;;;7.15;;
54539;SDS011;40438;52.992;18.604;2023-04-15T03:08:55;12.05;;;7.03;;
54539;SDS011;40438;52.992;18.604;2023-04-15T03:11:22;10.68;;;6.75;;
54539;SDS011;40438;52.992;18.604;2023-04-15T03:13:48;11.02;;;6.80;;
54539;SDS011;40438;52.992;18.604;2023-04-15T03:16:28;12.35;;;6.90;;
54539;SDS011;40438;52.992;18.604;2023-04-15T03:18:54;13.80;;;6.75;;
54539;SDS011;40438;52.992;18.604;2023-04-15T03:21:21;12.73;;;7.03;;
54539;SDS011;40438;52.992;18.604;2023-04-15T03:23:48;13.23;;;6.57;;
54539;SDS011;40438;52.992;18.604;2023-04-15T03:26:24;11.25;;;6.78;;
54539;SDS011;40438;52.992;18.604;2023-04-15T03:28:51;13.65;;;6.90;;
54539;SDS011;40438;52.992;18.604;2023-04-15T03:31:17;11.95;;;7.28;;
54539;SDS011;40438;52.992;18.604;2023-04-15T03:33:43;13.95;;;6.60;;
54539;SDS011;40438;52.992;18.604;2023-04-15T03:36:09;10.50;;;6.07;;
54539;SDS011;40438;52.992;18.604;2023-04-15T03:38:35;11.30;;;6.90;;
54539;SDS011;40438;52.992;18.604;2023-04-15T03:41:00;10.55;;;6.80;;
54539;SDS011;40438;52.992;18.604;2023-04-15T03:43:27;10.20;;;6.25;;
54539;SDS011;40438;52.992;18.604;2023-04-15T03:45:53;9.10;;;6.35;;
54539;SDS011;40438;52.992;18.604;2023-04-15T03:48:19;11.93;;;6.53;;
54539;SDS011;40438;52.992;18.604;2023-04-15T03:50:45;10.30;;;6.07;;
54539;SDS011;40438;52.992;18.604;2023-04-15T03:53:11;9.43;;;5.72;;
54539;SDS011;40438;52.992;18.604;2023-04-15T03:55:36;10.70;;;6.55;;
54539;SDS011;40438;52.992;18.604;2023-04-15T03:58:02;14.07;;;6.82;;
54539;SDS011;40438;52.992;18.604;2023-04-15T04:00:29;11.55;;;7.00;;
54539;SDS011;40438;52.992;18.604;2023-04-15T04:02:55;10.18;;;6.50;;
54539;SDS011;40438;52.992;18.604;2023-04-15T04:05:21;12.35;;;6.47;;
54539;SDS011;40438;52.992;18.604;2023-04-15T04:07:47;8.00;;;6.10;;
54539;SDS011;40438;52.992;18.604;2023-04-15T04:10:12;10.35;;;5.80;;
54539;SDS011;40438;52.992;18.604;2023-04-15T04:12:38;13.57;;;6.60;;
54539;SDS011;40438;52.992;18.604;2023-04-15T04:15:04;11.48;;;6.40;;
54539;SDS011;40438;52.992;18.604;2023-04-15T04:19:59;11.40;;;6.05;;
54539;SDS011;40438;52.992;18.604;2023-04-15T04:22:25;11.25;;;6.55;;
54539;SDS011;40438;52.992;18.604;2023-04-15T04:24:50;12.10;;;6.20;;
54539;SDS011;40438;52.992;18.604;2023-04-15T04:27:16;10.90;;;6.53;;
54539;SDS011;40438;52.992;18.604;2023-04-15T04:29:42;11.10;;;6.40;;
54539;SDS011;40438;52.992;18.604;2023-04-15T04:32:08;17.73;;;6.22;;
54539;SDS011;40438;52.992;18.604;2023-04-15T04:34:35;12.20;;;6.70;;
54539;SDS011;40438;52.992;18.604;2023-04-15T04:37:01;12.23;;;5.95;;
54539;SDS011;40438;52.992;18.604;2023-04-15T04:39:26;11.52;;;6.95;;
54539;SDS011;40438;52.992;18.604;2023-04-15T04:41:52;11.75;;;6.68;;
54539;SDS011;40438;52.992;18.604;2023-04-15T04:44:18;10.98;;;6.28;;
54539;SDS011;40438;52.992;18.604;2023-04-15T04:46:44;10.57;;;6.60;;
54539;SDS011;40438;52.992;18.604;2023-04-15T04:49:09;13.77;;;7.07;;
54539;SDS011;40438;52.992;18.604;2023-04-15T04:51:37;11.50;;;6.28;;
54539;SDS011;40438;52.992;18.604;2023-04-15T04:54:03;10.27;;;6.50;;
54539;SDS011;40438;52.992;18.604;2023-04-15T04:56:28;12.30;;;7.43;;
54539;SDS011;40438;52.992;18.604;2023-04-15T04:58:54;11.52;;;6.28;;
54539;SDS011;40438;52.992;18.604;2023-04-15T05:01:20;8.52;;;5.90;;
54539;SDS011;40438;52.992;18.604;2023-04-15T05:03:46;11.27;;;6.38;;
54539;SDS011;40438;52.992;18.604;2023-04-15T05:06:11;11.93;;;6.63;;
54539;SDS011;40438;52.992;18.604;2023-04-15T05:08:39;12.27;;;6.72;;
54539;SDS011;40438;52.992;18.604;2023-04-15T05:11:04;10.85;;;6.10;;
54539;SDS011;40438;52.992;18.604;2023-04-15T05:13:30;14.32;;;6.65;;
54539;SDS011;40438;52.992;18.604;2023-04-15T05:15:56;10.43;;;6.32;;
54539;SDS011;40438;52.992;18.604;2023-04-15T05:18:22;12.80;;;7.43;;
54539;SDS011;40438;52.992;18.604;2023-04-15T05:20:47;12.57;;;7.07;;
54539;SDS011;40438;52.992;18.604;2023-04-15T05:23:13;15.90;;;7.80;;
54539;SDS011;40438;52.992;18.604;2023-04-15T05:25:40;14.25;;;7.60;;
54539;SDS011;40438;52.992;18.604;2023-04-15T05:28:06;12.40;;;6.97;;
54539;SDS011;40438;52.992;18.604;2023-04-15T05:30:32;12.88;;;7.30;;
54539;SDS011;40438;52.992;18.604;2023-04-15T05:32:58;11.30;;;7.15;;
54539;SDS011;40438;52.992;18.604;2023-04-15T05:35:24;14.90;;;7.95;;
54539;SDS011;40438;52.992;18.604;2023-04-15T05:37:49;15.68;;;8.23;;
54539;SDS011;40438;52.992;18.604;2023-04-15T05:40:15;14.38;;;8.45;;
54539;SDS011;40438;52.992;18.604;2023-04-15T05:42:43;13.27;;;7.97;;
54539;SDS011;40438;52.992;18.604;2023-04-15T05:45:09;16.05;;;8.45;;
54539;SDS011;40438;52.992;18.604;2023-04-15T05:47:35;16.00;;;9.15;;
54539;SDS011;40438;52.992;18.604;2023-04-15T05:50:01;18.50;;;8.63;;
54539;SDS011;40438;52.992;18.604;2023-04-15T05:52:27;17.08;;;8.45;;
54539;SDS011;40438;52.992;18.604;2023-04-15T05:54:52;18.50;;;9.15;;
54539;SDS011;40438;52.992;18.604;2023-04-15T05:57:18;16.17;;;9.23;;
54539;SDS011;40438;52.992;18.604;2023-04-15T05:59:45;19.98;;;9.43;;
54539;SDS011;40438;52.992;18.604;2023-04-15T06:02:11;15.75;;;9.13;;
54539;SDS011;40438;52.992;18.604;2023-04-15T06:04:37;17.92;;;9.23;;
54539;SDS011;40438;52.992;18.604;2023-04-15T06:07:03;16.27;;;9.05;;
54539;SDS011;40438;52.992;18.604;2023-04-15T06:09:29;17.20;;;9.00;;
54539;SDS011;40438;52.992;18.604;2023-04-15T06:11:54;17.55;;;8.65;;
54539;SDS011;40438;52.992;18.604;2023-04-15T06:14:20;15.70;;;9.15;;
54539;SDS011;40438;52.992;18.604;2023-04-15T06:16:47;15.30;;;8.45;;
54539;SDS011;40438;52.992;18.604;2023-04-15T06:19:13;20.38;;;8.10;;
54539;SDS011;40438;52.992;18.604;2023-04-15T06:21:39;17.08;;;9.02;;
54539;SDS011;40438;52.992;18.604;2023-04-15T06:24:05;14.60;;;8.35;;
54539;SDS011;40438;52.992;18.604;2023-04-15T06:26:31;14.48;;;8.32;;
54539;SDS011;40438;52.992;18.604;2023-04-15T06:28:57;13.48;;;8.18;;
54539;SDS011;40438;52.992;18.604;2023-04-15T06:31:22;14.13;;;8.63;;
54539;SDS011;40438;52.992;18.604;2023-04-15T06:33:50;14.63;;;9.15;;
54539;SDS011;40438;52.992;18.604;2023-04-15T06:36:15;16.58;;;8.15;;
54539;SDS011;40438;52.992;18.604;2023-04-15T06:38:41;14.90;;;9.18;;
54539;SDS011;40438;52.992;18.604;2023-04-15T06:41:07;16.17;;;8.68;;
54539;SDS011;40438;52.992;18.604;2023-04-15T06:43:33;19.75;;;9.75;;
54539;SDS011;40438;52.992;18.604;2023-04-15T06:45:59;17.73;;;8.80;;
54539;SDS011;40438;52.992;18.604;2023-04-15T06:48:24;16.10;;;9.02;;
54539;SDS011;40438;52.992;18.604;2023-04-15T06:50:51;13.18;;;8.35;;
54539;SDS011;40438;52.992;18.604;2023-04-15T06:53:17;18.45;;;10.40;;
54539;SDS011;40438;52.992;18.604;2023-04-15T06:55:43;16.27;;;9.35;;
54539;SDS011;40438;52.992;18.604;2023-04-15T06:58:09;13.52;;;7.90;;
54539;SDS011;40438;52.992;18.604;2023-04-15T07:00:35;18.05;;;8.70;;
54539;SDS011;40438;52.992;18.604;2023-04-15T07:03:00;17.35;;;8.57;;
54539;SDS011;40438;52.992;18.604;2023-04-15T07:05:26;17.95;;;9.63;;
54539;SDS011;40438;52.992;18.604;2023-04-15T07:07:53;16.83;;;9.52;;
54539;SDS011;40438;52.992;18.604;2023-04-15T07:10:19;22.83;;;11.50;;
54539;SDS011;40438;52.992;18.604;2023-04-15T07:12:45;18.73;;;9.55;;
54539;SDS011;40438;52.992;18.604;2023-04-15T07:15:12;17.52;;;9.02;;
54539;SDS011;40438;52.992;18.604;2023-04-15T07:17:38;15.15;;;8.75;;
54539;SDS011;40438;52.992;18.604;2023-04-15T07:20:05;18.30;;;9.52;;
54539;SDS011;40438;52.992;18.604;2023-04-15T07:22:31;17.88;;;9.02;;
54539;SDS011;40438;52.992;18.604;2023-04-15T07:24:59;16.38;;;9.32;;
54539;SDS011;40438;52.992;18.604;2023-04-15T07:27:24;17.30;;;9.27;;
54539;SDS011;40438;52.992;18.604;2023-04-15T07:29:50;11.75;;;8.15;;
54539;SDS011;40438;52.992;18.604;2023-04-15T07:32:16;14.77;;;8.15;;
54539;SDS011;40438;52.992;18.604;2023-04-15T07:34:42;15.50;;;8.70;;
54539;SDS011;40438;52.992;18.604;2023-04-15T07:37:08;16.33;;;9.38;;
54539;SDS011;40438;52.992;18.604;2023-04-15T07:39:34;17.42;;;9.30;;
54539;SDS011;40438;52.992;18.604;2023-04-15T07:42:01;15.70;;;8.52;;
54539;SDS011;40438;52.992;18.604;2023-04-15T07:44:27;12.75;;;8.68;;
54539;SDS011;40438;52.992;18.604;2023-04-15T07:46:53;18.15;;;9.32;;
54539;SDS011;40438;52.992;18.604;2023-04-15T07:49:18;16.83;;;9.40;;
54539;SDS011;40438;52.992;18.604;2023-04-15T07:51:44;16.02;;;8.48;;
54539;SDS011;40438;52.992;18.604;2023-04-15T07:54:10;18.70;;;9.05;;
54539;SDS011;40438;52.992;18.604;2023-04-15T07:56:36;15.85;;;8.77;;
54539;SDS011;40438;52.992;18.604;2023-04-15T07:59:03;17.15;;;8.88;;
54539;SDS011;40438;52.992;18.604;2023-04-15T08:01:29;15.98;;;8.70;;
54539;SDS011;40438;52.992;18.604;2023-04-15T08:03:55;14.00;;;8.68;;
54539;SDS011;40438;52.992;18.604;2023-04-15T08:06:20;14.25;;;8.18;;
54539;SDS011;40438;52.992;18.604;2023-04-15T08:08:46;16.60;;;8.45;;
54539;SDS011;40438;52.992;18.604;2023-04-15T08:11:12;16.17;;;9.15;;
54539;SDS011;40438;52.992;18.604;2023-04-15T08:13:38;18.10;;;10.77;;
54539;SDS011;40438;52.992;18.604;2023-04-15T08:16:16;15.88;;;8.73;;
54539;SDS011;40438;52.992;18.604;2023-04-15T08:18:43;15.30;;;7.80;;
54539;SDS011;40438;52.992;18.604;2023-04-15T08:21:09;14.77;;;8.23;;
54539;SDS011;40438;52.992;18.604;2023-04-15T08:23:35;15.85;;;8.27;;
54539;SDS011;40438;52.992;18.604;2023-04-15T08:26:01;16.88;;;8.40;;
54539;SDS011;40438;52.992;18.604;2023-04-15T08:28:27;15.02;;;8.23;;
54539;SDS011;40438;52.992;18.604;2023-04-15T08:30:53;15.48;;;8.55;;
54539;SDS011;40438;52.992;18.604;2023-04-15T08:33:20;16.48;;;8.40;;
54539;SDS011;40438;52.992;18.604;2023-04-15T08:35:47;13.45;;;7.82;;
54539;SDS011;40438;52.992;18.604;2023-04-15T08:38:13;12.43;;;7.57;;
54539;SDS011;40438;52.992;18.604;2023-04-15T08:40:39;14.95;;;7.25;;
54539;SDS011;40438;52.992;18.604;2023-04-15T08:43:06;12.63;;;8.07;;
54539;SDS011;40438;52.992;18.604;2023-04-15T08:45:35;12.27;;;7.90;;
54539;SDS011;40438;52.992;18.604;2023-04-15T08:48:03;15.23;;;9.35;;
54539;SDS011;40438;52.992;18.604;2023-04-15T08:50:31;15.23;;;8.02;;
54539;SDS011;40438;52.992;18.604;2023-04-15T08:52:58;16.45;;;8.63;;
54539;SDS011;40438;52.992;18.604;2023-04-15T08:55:24;15.95;;;8.48;;
54539;SDS011;40438;52.992;18.604;2023-04-15T08:57:53;15.85;;;7.47;;
54539;SDS011;40438;52.992;18.604;2023-04-15T09:00:20;17.00;;;8.32;;
54539;SDS011;40438;52.992;18.604;2023-04-15T09:02:46;15.88;;;8.68;;
54539;SDS011;40438;52.992;18.604;2023-04-15T09:05:12;16.27;;;7.93;;
54539;SDS011;40438;52.992;18.604;2023-04-15T09:07:39;15.05;;;7.93;;
54539;SDS011;40438;52.992;18.604;2023-04-15T09:10:05;16.90;;;8.00;;
54539;SDS011;40438;52.992;18.604;2023-04-15T09:12:33;14.88;;;8.00;;
54539;SDS011;40438;52.992;18.604;2023-04-15T09:14:59;15.00;;;7.88;;
54539;SDS011;40438;52.992;18.604;2023-04-15T09:17:26;14.73;;;8.70;;
54539;SDS011;40438;52.992;18.604;2023-04-15T09:20:05;16.58;;;8.10;;
54539;SDS011;40438;52.992;18.604;2023-04-15T09:22:32;13.90;;;7.65;;
54539;SDS011;40438;52.992;18.604;2023-04-15T09:25:00;16.30;;;8.68;;
54539;SDS011;40438;52.992;18.604;2023-04-15T09:27:25;21.55;;;8.98;;
54539;SDS011;40438;52.992;18.604;2023-04-15T09:29:52;14.45;;;7.82;;
54539;SDS011;40438;52.992;18.604;2023-04-15T09:32:18;19.25;;;8.35;;
54539;SDS011;40438;52.992;18.604;2023-04-15T09:34:44;16.13;;;8.13;;
54539;SDS011;40438;52.992;18.604;2023-04-15T09:37:10;17.70;;;8.20;;
54539;SDS011;40438;52.992;18.604;2023-04-15T09:39:45;16.50;;;8.05;;
54539;SDS011;40438;52.992;18.604;2023-04-15T09:42:13;16.08;;;8.52;;
54539;SDS011;40438;52.992;18.604;2023-04-15T09:44:39;13.25;;;7.70;;
54539;SDS011;40438;52.992;18.604;2023-04-15T09:47:05;15.38;;;8.07;;
54539;SDS011;40438;52.992;18.604;2023-04-15T09:49:31;16.35;;;7.82;;
54539;SDS011;40438;52.992;18.604;2023-04-15T09:51:58;14.50;;;7.85;;
54539;SDS011;40438;52.992;18.604;2023-04-15T09:54:24;15.98;;;7.90;;
54539;SDS011;40438;52.992;18.604;2023-04-15T09:57:03;15.80;;;7.93;;
54539;SDS011;40438;52.992;18.604;2023-04-15T09:59:31;11.15;;;6.68;;
54539;SDS011;40438;52.992;18.604;2023-04-15T10:01:57;14.20;;;7.95;;
54539;SDS011;40438;52.992;18.604;2023-04-15T10:04:23;10.80;;;6.32;;
54539;SDS011;40438;52.992;18.604;2023-04-15T10:06:50;12.82;;;7.53;;
54539;SDS011;40438;52.992;18.604;2023-04-15T10:09:16;11.73;;;7.43;;
54539;SDS011;40438;52.992;18.604;2023-04-15T10:11:42;13.35;;;8.23;;
54539;SDS011;40438;52.992;18.604;2023-04-15T10:14:09;12.82;;;8.05;;
54539;SDS011;40438;52.992;18.604;2023-04-15T10:16:38;13.82;;;7.25;;
54539;SDS011;40438;52.992;18.604;2023-04-15T10:19:07;15.85;;;7.18;;
54539;SDS011;40438;52.992;18.604;2023-04-15T10:21:34;14.45;;;7.22;;
54539;SDS011;40438;52.992;18.604;2023-04-15T10:24:01;13.45;;;7.43;;
54539;SDS011;40438;52.992;18.604;2023-04-15T10:26:28;13.40;;;6.97;;
54539;SDS011;40438;52.992;18.604;2023-04-15T10:28:54;15.77;;;7.32;;
54539;SDS011;40438;52.992;18.604;2023-04-15T10:31:21;11.05;;;6.25;;
54539;SDS011;40438;52.992;18.604;2023-04-15T10:33:49;12.52;;;6.07;;
54539;SDS011;40438;52.992;18.604;2023-04-15T10:36:15;15.00;;;6.60;;
54539;SDS011;40438;52.992;18.604;2023-04-15T10:38:43;10.95;;;6.28;;
54539;SDS011;40438;52.992;18.604;2023-04-15T10:41:16;14.48;;;6.38;;
54539;SDS011;40438;52.992;18.604;2023-04-15T10:43:50;10.73;;;6.03;;
54539;SDS011;40438;52.992;18.604;2023-04-15T10:46:21;11.98;;;5.75;;
54539;SDS011;40438;52.992;18.604;2023-04-15T10:48:49;9.18;;;5.97;;
54539;SDS011;40438;52.992;18.604;2023-04-15T10:51:16;10.38;;;6.22;;
54539;SDS011;40438;52.992;18.604;2023-04-15T10:53:50;10.35;;;5.93;;
54539;SDS011;40438;52.992;18.604;2023-04-15T10:56:21;13.52;;;6.80;;
54539;SDS011;40438;52.992;18.604;2023-04-15T10:58:47;11.32;;;6.40;;
54539;SDS011;40438;52.992;18.604;2023-04-15T11:01:12;9.32;;;5.82;;
54539;SDS011;40438;52.992;18.604;2023-04-15T11:03:39;8.88;;;5.55;;
54539;SDS011;40438;52.992;18.604;2023-04-15T11:06:08;14.27;;;5.97;;
54539;SDS011;40438;52.992;18.604;2023-04-15T11:08:53;9.23;;;5.55;;
54539;SDS011;40438;52.992;18.604;2023-04-15T11:11:22;11.50;;;6.20;;
54539;SDS011;40438;52.992;18.604;2023-04-15T11:13:48;14.77;;;7.10;;
54539;SDS011;40438;52.992;18.604;2023-04-15T11:16:15;12.10;;;6.78;;
54539;SDS011;40438;52.992;18.604;2023-04-15T11:18:41;10.75;;;5.80;;
54539;SDS011;40438;52.992;18.604;2023-04-15T11:21:08;10.25;;;5.75;;
54539;SDS011;40438;52.992;18.604;2023-04-15T11:23:37;15.73;;;7.03;;
54539;SDS011;40438;52.992;18.604;2023-04-15T11:26:05;10.35;;;5.75;;
54539;SDS011;40438;52.992;18.604;2023-04-15T11:28:32;11.15;;;6.68;;
54539;SDS011;40438;52.992;18.604;2023-04-15T11:31:02;13.18;;;7.03;;
54539;SDS011;40438;52.992;18.604;2023-04-15T11:33:31;11.57;;;6.43;;
54539;SDS011;40438;52.992;18.604;2023-04-15T11:35:56;12.77;;;7.18;;
54539;SDS011;40438;52.992;18.604;2023-04-15T11:38:24;11.57;;;7.13;;
54539;SDS011;40438;52.992;18.604;2023-04-15T11:40:50;13.55;;;7.05;;
54539;SDS011;40438;52.992;18.604;2023-04-15T11:43:17;13.45;;;6.22;;
54539;SDS011;40438;52.992;18.604;2023-04-15T11:45:47;9.63;;;5.43;;
54539;SDS011;40438;52.992;18.604;2023-04-15T11:48:14;11.35;;;5.93;;
54539;SDS011;40438;52.992;18.604;2023-04-15T11:50:40;10.77;;;6.32;;
54539;SDS011;40438;52.992;18.604;2023-04-15T11:53:08;12.02;;;6.47;;
54539;SDS011;40438;52.992;18.604;2023-04-15T11:55:43;9.80;;;6.50;;
54539;SDS011;40438;52.992;18.604;2023-04-15T11:58:11;12.82;;;6.28;;
54539;SDS011;40438;52.992;18.604;2023-04-15T12:00:38;14.30;;;7.03;;
54539;SDS011;40438;52.992;18.604;2023-04-15T12:03:11;10.48;;;6.82;;
54539;SDS011;40438;52.992;18.604;2023-04-15T12:08:57;10.60;;;7.05;;
54539;SDS011;40438;52.992;18.604;2023-04-15T12:11:36;13.45;;;7.00;;
54539;SDS011;40438;52.992;18.604;2023-04-15T12:14:04;14.32;;;7.28;;
54539;SDS011;40438;52.992;18.604;2023-04-15T12:16:33;12.32;;;6.82;;
54539;SDS011;40438;52.992;18.604;2023-04-15T12:18:59;13.23;;;7.28;;
54539;SDS011;40438;52.992;18.604;2023-04-15T12:21:32;13.70;;;7.95;;
54539;SDS011;40438;52.992;18.604;2023-04-15T12:24:00;10.65;;;6.68;;
54539;SDS011;40438;52.992;18.604;2023-04-15T12:26:28;14.98;;;7.40;;
54539;SDS011;40438;52.992;18.604;2023-04-15T12:29:01;15.20;;;7.63;;
54539;SDS011;40438;52.992;18.604;2023-04-15T12:31:27;13.48;;;6.97;;
54539;SDS011;40438;52.992;18.604;2023-04-15T12:33:54;14.50;;;7.72;;
54539;SDS011;40438;52.992;18.604;2023-04-15T12:36:20;13.27;;;7.30;;
54539;SDS011;40438;52.992;18.604;2023-04-15T12:38:45;14.18;;;7.57;;
54539;SDS011;40438;52.992;18.604;2023-04-15T12:41:11;13.30;;;7.03;;
54539;SDS011;40438;52.992;18.604;2023-04-15T12:43:37;14.98;;;6.82;;
54539;SDS011;40438;52.992;18.604;2023-04-15T12:46:04;13.02;;;6.43;;
54539;SDS011;40438;52.992;18.604;2023-04-15T12:48:30;11.35;;;6.53;;
54539;SDS011;40438;52.992;18.604;2023-04-15T12:50:56;11.68;;;6.57;;
54539;SDS011;40438;52.992;18.604;2023-04-15T12:53:22;15.88;;;5.93;;
54539;SDS011;40438;52.992;18.604;2023-04-15T12:55:47;10.45;;;6.43;;
54539;SDS011;40438;52.992;18.604;2023-04-15T12:58:13;10.32;;;6.57;;
54539;SDS011;40438;52.992;18.604;2023-04-15T13:00:39;13.20;;;6.63;;
54539;SDS011;40438;52.992;18.604;2023-04-15T13:03:06;11.82;;;6.30;;
54539;SDS011;40438;52.992;18.604;2023-04-15T13:05:32;11.63;;;6.20;;
54539;SDS011;40438;52.992;18.604;2023-04-15T13:07:58;14.55;;;7.32;;
54539;SDS011;40438;52.992;18.604;2023-04-15T13:10:23;11.50;;;7.07;;
54539;SDS011;40438;52.992;18.604;2023-04-15T13:12:50;14.32;;;7.43;;
54539;SDS011;40438;52.992;18.604;2023-04-15T13:15:16;11.38;;;7.07;;
54539;SDS011;40438;52.992;18.604;2023-04-15T13:17:42;14.13;;;6.80;;
54539;SDS011;40438;52.992;18.604;2023-04-15T13:20:10;11.40;;;6.78;;
54539;SDS011;40438;52.992;18.604;2023-04-15T13:22:35;13.65;;;6.95;;
54539;SDS011;40438;52.992;18.604;2023-04-15T13:25:01;13.02;;;6.90;;
54539;SDS011;40438;52.992;18.604;2023-04-15T13:27:27;9.88;;;5.90;;
54539;SDS011;40438;52.992;18.604;2023-04-15T13:29:53;9.80;;;6.20;;
54539;SDS011;40438;52.992;18.604;2023-04-15T13:32:19;10.57;;;5.80;;
54539;SDS011;40438;52.992;18.604;2023-04-15T13:34:45;11.45;;;6.22;;
54539;SDS011;40438;52.992;18.604;2023-04-15T13:37:12;9.95;;;5.97;;
54539;SDS011;40438;52.992;18.604;2023-04-15T13:39:38;9.57;;;5.38;;
54539;SDS011;40438;52.992;18.604;2023-04-15T13:42:03;11.13;;;5.75;;
54539;SDS011;40438;52.992;18.604;2023-04-15T13:44:29;8.82;;;5.05;;
54539;SDS011;40438;52.992;18.604;2023-04-15T13:46:55;10.25;;;5.38;;
54539;SDS011;40438;52.992;18.604;2023-04-15T13:49:21;9.45;;;5.18;;
54539;SDS011;40438;52.992;18.604;2023-04-15T13:51:46;7.20;;;4.88;;
54539;SDS011;40438;52.992;18.604;2023-04-15T13:54:14;9.93;;;5.15;;
54539;SDS011;40438;52.992;18.604;2023-04-15T13:56:39;11.00;;;5.70;;
54539;SDS011;40438;52.992;18.604;2023-04-15T13:59:05;9.95;;;5.35;;
54539;SDS011;40438;52.992;18.604;2023-04-15T14:01:31;7.32;;;4.50;;
54539;SDS011;40438;52.992;18.604;2023-04-15T14:03:57;8.40;;;4.65;;
54539;SDS011;40438;52.992;18.604;2023-04-15T14:06:22;10.15;;;5.00;;
54539;SDS011;40438;52.992;18.604;2023-04-15T14:08:49;9.15;;;5.57;;
54539;SDS011;40438;52.992;18.604;2023-04-15T14:11:16;9.88;;;5.50;;
54539;SDS011;40438;52.992;18.604;2023-04-15T14:13:42;8.88;;;5.82;;
54539;SDS011;40438;52.992;18.604;2023-04-15T14:16:07;9.77;;;5.60;;
54539;SDS011;40438;52.992;18.604;2023-04-15T14:18:33;10.05;;;6.47;;
54539;SDS011;40438;52.992;18.604;2023-04-15T14:20:59;10.52;;;6.63;;
54539;SDS011;40438;52.992;18.604;2023-04-15T14:23:25;15.00;;;6.95;;
54539;SDS011;40438;52.992;18.604;2023-04-15T14:25:50;10.82;;;6.93;;